Messwerte Missoula

Temperatur

Temperatur
°C
1603857600 22.00 22.00 -6
1603861200 23.00 23.00 -5
1603864800 0.00 0.00 -4
1603868400 1.00 1.00 -7
1603872000 2.00 2.00 -7
1603875600 3.00 3.00 -7
1603879200 4.00 4.00 -8
1603882800 5.00 5.00 -8
1603886400 6.00 6.00
1603890000 7.00 7.00 -7
1603893600 8.00 8.00
1603897200 9.00 9.00 -7
1603900800 10.00 10.00 -7
1603904400 11.00 11.00 -5
1603908000 12.00 12.00 -2
1603911600 13.00 13.00 -1
1603915200 14.00 14.00 2
1603918800 15.00 15.00 2
1603922400 16.00 16.00
1603926000 17.00 17.00
1603929600 18.00 18.00 3
1603933200 19.00 19.00 2
1603936800 20.00 20.00 0
1603940400 21.00 21.00 -2

Aktuellste Messwerte

Wettercharakter
Wetter: Nebel
Temperatur
-2 °C
Feuchtigkeit
93 %
Wind
0 km/h, -
Luftdruck
1021 hPa
Messzeit: 28. Oktober 2020, 22.00Datenquelle: METAR

Weitere Messstationen in der Nähe

Messstation Temperatur Entfernung
Mullan Pass 4 °C 134 km
Lowell 2.0 °C 144 km
Kalispell 0 °C 154 km
Helena 3 °C 162 km
Butte 1 °C 162 km
Great Falls 6 °C 214 km
Dillon 5 °C 219 km

Wind

Windrichtung Böen Mittelwind
° km/h km/h
1603857600 22.00 21.00 - 22.00 0
1603861200 23.00 22.00 - 23.00 0
1603864800 0.00 23.00 - 0.00 0
1603868400 1.00 0.00 - 1.00 260° 10
1603872000 2.00 1.00 - 2.00 50° 5
1603875600 3.00 2.00 - 3.00 0
1603879200 4.00 3.00 - 4.00 0
1603882800 5.00 4.00 - 5.00 270° 5
1603886400 6.00 5.00 - 6.00
1603890000 7.00 6.00 - 7.00 0
1603893600 8.00 7.00 - 8.00
1603897200 9.00 8.00 - 9.00 20° 0
1603900800 10.00 9.00 - 10.00 0
1603904400 11.00 10.00 - 11.00 0
1603908000 12.00 11.00 - 12.00 0
1603911600 13.00 12.00 - 13.00 0
1603915200 14.00 13.00 - 14.00 0
1603918800 15.00 14.00 - 15.00 0
1603922400 16.00 15.00 - 16.00
1603926000 17.00 16.00 - 17.00
1603929600 18.00 17.00 - 18.00 300° 5
1603933200 19.00 18.00 - 19.00 0
1603936800 20.00 19.00 - 20.00 330° 5
1603940400 21.00 20.00 - 21.00

Ihre Wetterstation

Fehlt Ihre Wetterstation auf unserem Portal?

Schreiben Sie an network@meteonews.ch

Klima

Wann ist es am wärmsten? Wann regnet es am wenigsten? Unsere Klimadaten geben Auskunft.